sensor_id;sensor_type;location;lat;lon;timestamp;temperature;humidity
8882;DHT22;4477;48.736;9.176;2024-03-08T00:01:36;1.10;99.90
8882;DHT22;4477;48.736;9.176;2024-03-08T00:04:04;1.20;99.90
8882;DHT22;4477;48.736;9.176;2024-03-08T00:06:32;1.10;99.90
8882;DHT22;4477;48.736;9.176;2024-03-08T00:08:59;1.10;99.90
8882;DHT22;4477;48.736;9.176;2024-03-08T00:11:27;1.10;99.90
8882;DHT22;4477;48.736;9.176;2024-03-08T00:13:54;1.00;99.90
8882;DHT22;4477;48.736;9.176;2024-03-08T00:16:21;1.00;99.90
8882;DHT22;4477;48.736;9.176;2024-03-08T00:18:48;0.90;99.90
8882;DHT22;4477;48.736;9.176;2024-03-08T00:21:16;1.00;99.90
8882;DHT22;4477;48.736;9.176;2024-03-08T00:23:43;0.90;99.90
8882;DHT22;4477;48.736;9.176;2024-03-08T00:26:10;1.00;99.90
8882;DHT22;4477;48.736;9.176;2024-03-08T00:28:38;0.90;99.90
8882;DHT22;4477;48.736;9.176;2024-03-08T00:31:05;0.90;99.90
8882;DHT22;4477;48.736;9.176;2024-03-08T00:33:33;0.80;99.90
8882;DHT22;4477;48.736;9.176;2024-03-08T00:36:00;0.70;99.90
8882;DHT22;4477;48.736;9.176;2024-03-08T00:38:27;0.70;99.90
8882;DHT22;4477;48.736;9.176;2024-03-08T00:40:54;0.70;99.90
8882;DHT22;4477;48.736;9.176;2024-03-08T00:43:22;0.60;99.90
8882;DHT22;4477;48.736;9.176;2024-03-08T00:45:51;0.60;99.90
8882;DHT22;4477;48.736;9.176;2024-03-08T00:48:17;0.50;99.90
8882;DHT22;4477;48.736;9.176;2024-03-08T00:50:44;0.50;99.90
8882;DHT22;4477;48.736;9.176;2024-03-08T00:53:12;0.50;99.90
8882;DHT22;4477;48.736;9.176;2024-03-08T00:55:39;0.50;99.90
8882;DHT22;4477;48.736;9.176;2024-03-08T00:58:06;0.40;99.90
8882;DHT22;4477;48.736;9.176;2024-03-08T01:00:34;0.40;99.90
8882;DHT22;4477;48.736;9.176;2024-03-08T01:03:05;0.40;99.90
8882;DHT22;4477;48.736;9.176;2024-03-08T01:05:33;0.40;99.90
8882;DHT22;4477;48.736;9.176;2024-03-08T01:08:00;0.50;99.90
8882;DHT22;4477;48.736;9.176;2024-03-08T01:10:28;0.40;99.90
8882;DHT22;4477;48.736;9.176;2024-03-08T01:12:55;0.30;99.90
8882;DHT22;4477;48.736;9.176;2024-03-08T01:15:25;0.30;99.90
8882;DHT22;4477;48.736;9.176;2024-03-08T01:17:52;0.30;99.90
8882;DHT22;4477;48.736;9.176;2024-03-08T01:20:21;0.30;99.90
8882;DHT22;4477;48.736;9.176;2024-03-08T01:22:48;0.30;99.90
8882;DHT22;4477;48.736;9.176;2024-03-08T01:25:14;0.30;99.90
8882;DHT22;4477;48.736;9.176;2024-03-08T01:27:41;0.30;99.90
8882;DHT22;4477;48.736;9.176;2024-03-08T01:30:09;0.30;99.90
8882;DHT22;4477;48.736;9.176;2024-03-08T01:32:36;0.20;99.90
8882;DHT22;4477;48.736;9.176;2024-03-08T01:35:05;0.20;99.90
8882;DHT22;4477;48.736;9.176;2024-03-08T01:37:36;0.20;99.90
8882;DHT22;4477;48.736;9.176;2024-03-08T01:40:04;0.20;99.90
8882;DHT22;4477;48.736;9.176;2024-03-08T01:42:31;0.20;99.90
8882;DHT22;4477;48.736;9.176;2024-03-08T01:44:58;0.20;99.90
8882;DHT22;4477;48.736;9.176;2024-03-08T01:47:26;0.20;99.90
8882;DHT22;4477;48.736;9.176;2024-03-08T01:49:53;0.10;99.90
8882;DHT22;4477;48.736;9.176;2024-03-08T01:52:21;0.10;99.90
8882;DHT22;4477;48.736;9.176;2024-03-08T01:54:50;0.20;99.90
8882;DHT22;4477;48.736;9.176;2024-03-08T01:57:20;0.20;99.90
8882;DHT22;4477;48.736;9.176;2024-03-08T01:59:47;0.10;99.90
8882;DHT22;4477;48.736;9.176;2024-03-08T02:02:18;0.20;99.90
8882;DHT22;4477;48.736;9.176;2024-03-08T02:04:46;0.10;99.90
8882;DHT22;4477;48.736;9.176;2024-03-08T02:07:13;0.10;99.90
8882;DHT22;4477;48.736;9.176;2024-03-08T02:09:40;0.10;99.90
8882;DHT22;4477;48.736;9.176;2024-03-08T02:12:14;0.00;99.90
8882;DHT22;4477;48.736;9.176;2024-03-08T02:14:41;0.20;99.90
8882;DHT22;4477;48.736;9.176;2024-03-08T02:17:10;0.10;99.90
8882;DHT22;4477;48.736;9.176;2024-03-08T02:19:39;0.10;99.90
8882;DHT22;4477;48.736;9.176;2024-03-08T02:22:08;0.10;99.90
8882;DHT22;4477;48.736;9.176;2024-03-08T02:24:35;0.10;99.90
8882;DHT22;4477;48.736;9.176;2024-03-08T02:27:02;0.00;99.90
8882;DHT22;4477;48.736;9.176;2024-03-08T02:29:30;0.10;99.90
8882;DHT22;4477;48.736;9.176;2024-03-08T02:31:58;0.10;99.90
8882;DHT22;4477;48.736;9.176;2024-03-08T02:34:25;0.10;99.90
8882;DHT22;4477;48.736;9.176;2024-03-08T02:36:52;0.00;99.90
8882;DHT22;4477;48.736;9.176;2024-03-08T02:39:20;0.00;99.90
8882;DHT22;4477;48.736;9.176;2024-03-08T02:41:48;0.00;99.90
8882;DHT22;4477;48.736;9.176;2024-03-08T02:44:15;-0.10;99.90
8882;DHT22;4477;48.736;9.176;2024-03-08T02:46:42;-0.10;99.90
8882;DHT22;4477;48.736;9.176;2024-03-08T02:49:09;-0.10;99.90
8882;DHT22;4477;48.736;9.176;2024-03-08T02:51:37;-0.10;99.90
8882;DHT22;4477;48.736;9.176;2024-03-08T02:54:04;-0.20;99.90
8882;DHT22;4477;48.736;9.176;2024-03-08T02:56:32;-0.10;99.90
8882;DHT22;4477;48.736;9.176;2024-03-08T02:59:00;-0.20;99.90
8882;DHT22;4477;48.736;9.176;2024-03-08T03:01:28;-0.20;99.90
8882;DHT22;4477;48.736;9.176;2024-03-08T03:03:57;-0.20;99.90
8882;DHT22;4477;48.736;9.176;2024-03-08T03:06:24;-0.20;99.90
8882;DHT22;4477;48.736;9.176;2024-03-08T03:08:51;-0.20;99.90
8882;DHT22;4477;48.736;9.176;2024-03-08T03:11:19;-0.30;99.90
8882;DHT22;4477;48.736;9.176;2024-03-08T03:13:47;-0.20;99.90
8882;DHT22;4477;48.736;9.176;2024-03-08T03:16:17;-0.30;99.90
8882;DHT22;4477;48.736;9.176;2024-03-08T03:18:45;-0.30;99.90
8882;DHT22;4477;48.736;9.176;2024-03-08T03:21:12;-0.40;99.90
8882;DHT22;4477;48.736;9.176;2024-03-08T03:23:40;-0.40;99.90
8882;DHT22;4477;48.736;9.176;2024-03-08T03:26:08;-0.40;99.90
8882;DHT22;4477;48.736;9.176;2024-03-08T03:28:36;-0.40;99.90
8882;DHT22;4477;48.736;9.176;2024-03-08T03:31:06;-0.50;99.90
8882;DHT22;4477;48.736;9.176;2024-03-08T03:33:33;-0.50;99.90
8882;DHT22;4477;48.736;9.176;2024-03-08T03:36:02;-0.60;99.90
8882;DHT22;4477;48.736;9.176;2024-03-08T03:38:30;-0.50;99.90
8882;DHT22;4477;48.736;9.176;2024-03-08T03:40:57;-0.60;99.90
8882;DHT22;4477;48.736;9.176;2024-03-08T03:43:32;-0.50;99.90
8882;DHT22;4477;48.736;9.176;2024-03-08T03:45:59;-0.60;99.90
8882;DHT22;4477;48.736;9.176;2024-03-08T03:48:28;-0.60;99.90
8882;DHT22;4477;48.736;9.176;2024-03-08T03:50:55;-0.70;99.90
8882;DHT22;4477;48.736;9.176;2024-03-08T03:53:21;-0.60;99.90
8882;DHT22;4477;48.736;9.176;2024-03-08T03:55:49;-0.70;99.90
8882;DHT22;4477;48.736;9.176;2024-03-08T03:58:15;-0.60;99.90
8882;DHT22;4477;48.736;9.176;2024-03-08T04:00:47;-0.70;99.90
8882;DHT22;4477;48.736;9.176;2024-03-08T04:03:15;-0.60;99.90
8882;DHT22;4477;48.736;9.176;2024-03-08T04:05:43;-0.60;99.90
8882;DHT22;4477;48.736;9.176;2024-03-08T04:08:10;-0.70;99.90
8882;DHT22;4477;48.736;9.176;2024-03-08T04:10:38;-0.70;99.90
8882;DHT22;4477;48.736;9.176;2024-03-08T04:13:07;-0.70;99.90
8882;DHT22;4477;48.736;9.176;2024-03-08T04:15:35;-0.70;99.90
8882;DHT22;4477;48.736;9.176;2024-03-08T04:18:03;-0.70;99.90
8882;DHT22;4477;48.736;9.176;2024-03-08T04:20:30;-0.70;99.90
8882;DHT22;4477;48.736;9.176;2024-03-08T04:22:59;-0.80;99.90
8882;DHT22;4477;48.736;9.176;2024-03-08T04:25:26;-0.80;99.90
8882;DHT22;4477;48.736;9.176;2024-03-08T04:27:53;-0.80;99.90
8882;DHT22;4477;48.736;9.176;2024-03-08T04:30:20;-0.80;99.90
8882;DHT22;4477;48.736;9.176;2024-03-08T04:32:48;-0.90;99.90
8882;DHT22;4477;48.736;9.176;2024-03-08T04:35:15;-0.80;99.90
8882;DHT22;4477;48.736;9.176;2024-03-08T04:37:42;-0.80;99.90
8882;DHT22;4477;48.736;9.176;2024-03-08T04:40:12;-0.90;99.90
8882;DHT22;4477;48.736;9.176;2024-03-08T04:42:40;-0.80;99.90
8882;DHT22;4477;48.736;9.176;2024-03-08T04:45:09;-0.80;99.90
8882;DHT22;4477;48.736;9.176;2024-03-08T04:47:37;-0.90;99.90
8882;DHT22;4477;48.736;9.176;2024-03-08T04:50:05;-0.80;99.90
8882;DHT22;4477;48.736;9.176;2024-03-08T04:52:32;-0.90;99.90
8882;DHT22;4477;48.736;9.176;2024-03-08T04:54:59;-0.90;99.90
8882;DHT22;4477;48.736;9.176;2024-03-08T04:57:28;-1.00;99.90
8882;DHT22;4477;48.736;9.176;2024-03-08T04:59:55;-1.00;99.90
8882;DHT22;4477;48.736;9.176;2024-03-08T05:02:24;-1.10;99.90
8882;DHT22;4477;48.736;9.176;2024-03-08T05:04:51;-1.10;99.90
8882;DHT22;4477;48.736;9.176;2024-03-08T05:07:18;-1.10;99.90
8882;DHT22;4477;48.736;9.176;2024-03-08T05:09:46;-1.10;99.90
8882;DHT22;4477;48.736;9.176;2024-03-08T05:12:17;-1.10;99.90
8882;DHT22;4477;48.736;9.176;2024-03-08T05:14:46;-1.20;99.90
8882;DHT22;4477;48.736;9.176;2024-03-08T05:17:15;-1.10;99.90
8882;DHT22;4477;48.736;9.176;2024-03-08T05:19:43;-1.20;99.90
8882;DHT22;4477;48.736;9.176;2024-03-08T05:22:10;-1.20;99.90
8882;DHT22;4477;48.736;9.176;2024-03-08T05:24:37;-1.20;99.90
8882;DHT22;4477;48.736;9.176;2024-03-08T05:27:05;-1.20;99.90
8882;DHT22;4477;48.736;9.176;2024-03-08T05:29:34;-1.20;99.90
8882;DHT22;4477;48.736;9.176;2024-03-08T05:32:02;-1.30;99.90
8882;DHT22;4477;48.736;9.176;2024-03-08T05:34:30;-1.30;99.90
8882;DHT22;4477;48.736;9.176;2024-03-08T05:36:57;-1.20;99.90
8882;DHT22;4477;48.736;9.176;2024-03-08T05:39:25;-1.20;99.90
8882;DHT22;4477;48.736;9.176;2024-03-08T05:41:52;-1.30;99.90
8882;DHT22;4477;48.736;9.176;2024-03-08T05:44:20;-1.20;99.90
8882;DHT22;4477;48.736;9.176;2024-03-08T05:46:47;-1.20;99.90
8882;DHT22;4477;48.736;9.176;2024-03-08T05:49:16;-1.30;99.90
8882;DHT22;4477;48.736;9.176;2024-03-08T05:51:43;-1.40;99.90
8882;DHT22;4477;48.736;9.176;2024-03-08T05:54:11;-1.40;99.90
8882;DHT22;4477;48.736;9.176;2024-03-08T05:56:40;-1.40;99.90
8882;DHT22;4477;48.736;9.176;2024-03-08T05:59:08;-1.30;99.90
8882;DHT22;4477;48.736;9.176;2024-03-08T06:01:35;-1.30;99.90
8882;DHT22;4477;48.736;9.176;2024-03-08T06:04:04;-1.30;99.90
8882;DHT22;4477;48.736;9.176;2024-03-08T06:06:33;-1.30;99.90
8882;DHT22;4477;48.736;9.176;2024-03-08T06:08:59;-1.20;99.90
8882;DHT22;4477;48.736;9.176;2024-03-08T06:11:34;-1.10;99.90
8882;DHT22;4477;48.736;9.176;2024-03-08T06:14:01;-1.10;99.90
8882;DHT22;4477;48.736;9.176;2024-03-08T06:16:27;-1.10;99.90
8882;DHT22;4477;48.736;9.176;2024-03-08T06:18:55;-1.00;99.90
8882;DHT22;4477;48.736;9.176;2024-03-08T06:21:23;-1.00;99.90
8882;DHT22;4477;48.736;9.176;2024-03-08T06:23:54;-1.00;99.90
8882;DHT22;4477;48.736;9.176;2024-03-08T06:26:23;-0.90;99.90
8882;DHT22;4477;48.736;9.176;2024-03-08T06:28:53;-0.90;99.90
8882;DHT22;4477;48.736;9.176;2024-03-08T06:31:20;-0.90;99.90
8882;DHT22;4477;48.736;9.176;2024-03-08T06:33:47;-0.80;99.90
8882;DHT22;4477;48.736;9.176;2024-03-08T06:36:16;-0.80;99.90
8882;DHT22;4477;48.736;9.176;2024-03-08T06:38:44;-0.70;99.90
8882;DHT22;4477;48.736;9.176;2024-03-08T06:41:13;-0.60;99.90
8882;DHT22;4477;48.736;9.176;2024-03-08T06:43:42;-0.60;99.90
8882;DHT22;4477;48.736;9.176;2024-03-08T06:46:09;-0.50;99.90
8882;DHT22;4477;48.736;9.176;2024-03-08T06:48:38;-0.40;99.90
8882;DHT22;4477;48.736;9.176;2024-03-08T06:51:05;-0.30;99.90
8882;DHT22;4477;48.736;9.176;2024-03-08T06:53:32;-0.10;99.90
8882;DHT22;4477;48.736;9.176;2024-03-08T06:56:00;0.00;99.90
8882;DHT22;4477;48.736;9.176;2024-03-08T06:58:29;0.20;99.90
8882;DHT22;4477;48.736;9.176;2024-03-08T07:00:56;0.40;99.90
8882;DHT22;4477;48.736;9.176;2024-03-08T07:03:25;0.50;99.90
8882;DHT22;4477;48.736;9.176;2024-03-08T07:05:56;0.60;99.90
8882;DHT22;4477;48.736;9.176;2024-03-08T07:08:23;0.60;99.90
8882;DHT22;4477;48.736;9.176;2024-03-08T07:10:52;0.80;99.90
8882;DHT22;4477;48.736;9.176;2024-03-08T07:13:19;0.90;99.90
8882;DHT22;4477;48.736;9.176;2024-03-08T07:15:48;1.00;99.90
8882;DHT22;4477;48.736;9.176;2024-03-08T07:18:15;1.10;99.90
8882;DHT22;4477;48.736;9.176;2024-03-08T07:20:42;1.20;99.90
8882;DHT22;4477;48.736;9.176;2024-03-08T07:23:09;1.30;99.90
8882;DHT22;4477;48.736;9.176;2024-03-08T07:25:36;1.30;99.90
8882;DHT22;4477;48.736;9.176;2024-03-08T07:28:04;1.40;99.90
8882;DHT22;4477;48.736;9.176;2024-03-08T07:30:33;1.40;99.90
8882;DHT22;4477;48.736;9.176;2024-03-08T07:33:18;1.60;99.90
8882;DHT22;4477;48.736;9.176;2024-03-08T07:35:45;1.60;99.90
8882;DHT22;4477;48.736;9.176;2024-03-08T07:38:12;1.70;99.90
8882;DHT22;4477;48.736;9.176;2024-03-08T07:40:40;1.80;99.90
8882;DHT22;4477;48.736;9.176;2024-03-08T07:43:10;1.90;99.90
8882;DHT22;4477;48.736;9.176;2024-03-08T07:45:37;2.00;99.90
8882;DHT22;4477;48.736;9.176;2024-03-08T07:48:05;2.20;99.90
8882;DHT22;4477;48.736;9.176;2024-03-08T07:50:39;2.30;99.90
8882;DHT22;4477;48.736;9.176;2024-03-08T07:53:07;2.30;99.90
8882;DHT22;4477;48.736;9.176;2024-03-08T07:55:34;2.30;99.90
8882;DHT22;4477;48.736;9.176;2024-03-08T07:58:02;2.40;99.90
8882;DHT22;4477;48.736;9.176;2024-03-08T08:00:29;2.40;99.90
8882;DHT22;4477;48.736;9.176;2024-03-08T08:02:57;2.50;99.90
8882;DHT22;4477;48.736;9.176;2024-03-08T08:05:23;2.50;99.90
8882;DHT22;4477;48.736;9.176;2024-03-08T08:07:53;2.60;99.90
8882;DHT22;4477;48.736;9.176;2024-03-08T08:10:20;2.70;99.90
8882;DHT22;4477;48.736;9.176;2024-03-08T08:12:48;2.80;99.90
8882;DHT22;4477;48.736;9.176;2024-03-08T08:15:15;2.80;99.90
8882;DHT22;4477;48.736;9.176;2024-03-08T08:17:43;2.90;99.90
8882;DHT22;4477;48.736;9.176;2024-03-08T08:20:11;3.00;99.90
8882;DHT22;4477;48.736;9.176;2024-03-08T08:22:38;3.10;99.90
8882;DHT22;4477;48.736;9.176;2024-03-08T08:25:08;3.10;99.90
8882;DHT22;4477;48.736;9.176;2024-03-08T08:27:38;3.20;99.90
8882;DHT22;4477;48.736;9.176;2024-03-08T08:30:06;3.30;99.90
8882;DHT22;4477;48.736;9.176;2024-03-08T08:32:34;3.10;99.90
8882;DHT22;4477;48.736;9.176;2024-03-08T08:35:02;3.20;99.90
8882;DHT22;4477;48.736;9.176;2024-03-08T08:37:30;3.40;99.90
8882;DHT22;4477;48.736;9.176;2024-03-08T08:39:57;3.40;99.90
8882;DHT22;4477;48.736;9.176;2024-03-08T08:42:25;3.40;99.90
8882;DHT22;4477;48.736;9.176;2024-03-08T08:44:54;3.40;99.90
8882;DHT22;4477;48.736;9.176;2024-03-08T08:47:23;3.50;99.90
8882;DHT22;4477;48.736;9.176;2024-03-08T08:49:50;3.40;99.90
8882;DHT22;4477;48.736;9.176;2024-03-08T08:52:17;3.30;99.90
8882;DHT22;4477;48.736;9.176;2024-03-08T08:54:44;3.10;99.90
8882;DHT22;4477;48.736;9.176;2024-03-08T08:57:11;3.10;99.90
8882;DHT22;4477;48.736;9.176;2024-03-08T08:59:40;3.10;99.90
8882;DHT22;4477;48.736;9.176;2024-03-08T09:02:07;3.20;99.90
8882;DHT22;4477;48.736;9.176;2024-03-08T09:04:35;3.20;99.90
8882;DHT22;4477;48.736;9.176;2024-03-08T09:07:02;3.20;99.90
8882;DHT22;4477;48.736;9.176;2024-03-08T09:09:31;3.10;99.90
8882;DHT22;4477;48.736;9.176;2024-03-08T09:11:58;3.30;99.90
8882;DHT22;4477;48.736;9.176;2024-03-08T09:14:25;3.20;99.90
8882;DHT22;4477;48.736;9.176;2024-03-08T09:16:54;3.30;99.90
8882;DHT22;4477;48.736;9.176;2024-03-08T09:19:20;3.60;99.90
8882;DHT22;4477;48.736;9.176;2024-03-08T09:21:50;3.60;99.90
8882;DHT22;4477;48.736;9.176;2024-03-08T09:24:17;3.60;99.90
8882;DHT22;4477;48.736;9.176;2024-03-08T09:26:44;3.80;99.90
8882;DHT22;4477;48.736;9.176;2024-03-08T09:29:11;3.80;99.60
8882;DHT22;4477;48.736;9.176;2024-03-08T09:31:38;4.00;99.50
8882;DHT22;4477;48.736;9.176;2024-03-08T09:34:06;4.00;98.30
8882;DHT22;4477;48.736;9.176;2024-03-08T09:36:34;4.10;98.40
8882;DHT22;4477;48.736;9.176;2024-03-08T09:39:01;4.20;97.80
8882;DHT22;4477;48.736;9.176;2024-03-08T09:41:28;4.20;97.90
8882;DHT22;4477;48.736;9.176;2024-03-08T09:43:56;4.40;97.70
8882;DHT22;4477;48.736;9.176;2024-03-08T09:46:25;4.30;97.40
8882;DHT22;4477;48.736;9.176;2024-03-08T09:48:52;4.30;97.20
8882;DHT22;4477;48.736;9.176;2024-03-08T09:51:22;4.50;97.30
8882;DHT22;4477;48.736;9.176;2024-03-08T09:53:54;4.70;96.30
8882;DHT22;4477;48.736;9.176;2024-03-08T09:56:22;4.90;96.30
8882;DHT22;4477;48.736;9.176;2024-03-08T09:58:49;5.10;95.60
8882;DHT22;4477;48.736;9.176;2024-03-08T10:01:40;5.30;94.40
8882;DHT22;4477;48.736;9.176;2024-03-08T10:04:07;5.20;94.90
8882;DHT22;4477;48.736;9.176;2024-03-08T10:06:37;5.10;94.50
8882;DHT22;4477;48.736;9.176;2024-03-08T10:09:04;5.20;95.10
8882;DHT22;4477;48.736;9.176;2024-03-08T10:11:33;5.30;94.30
8882;DHT22;4477;48.736;9.176;2024-03-08T10:14:00;5.40;93.70
8882;DHT22;4477;48.736;9.176;2024-03-08T10:16:28;5.60;92.80
8882;DHT22;4477;48.736;9.176;2024-03-08T10:18:56;5.80;92.80
8882;DHT22;4477;48.736;9.176;2024-03-08T10:21:23;5.80;92.50
8882;DHT22;4477;48.736;9.176;2024-03-08T10:23:52;5.80;92.40
8882;DHT22;4477;48.736;9.176;2024-03-08T10:26:19;5.70;92.20
8882;DHT22;4477;48.736;9.176;2024-03-08T10:28:48;5.70;92.20
8882;DHT22;4477;48.736;9.176;2024-03-08T10:31:15;6.00;91.80
8882;DHT22;4477;48.736;9.176;2024-03-08T10:33:43;6.30;91.60
8882;DHT22;4477;48.736;9.176;2024-03-08T10:36:11;6.50;90.70
8882;DHT22;4477;48.736;9.176;2024-03-08T10:38:39;6.30;90.50
8882;DHT22;4477;48.736;9.176;2024-03-08T10:41:09;6.40;90.20
8882;DHT22;4477;48.736;9.176;2024-03-08T10:43:52;6.30;90.80
8882;DHT22;4477;48.736;9.176;2024-03-08T10:46:29;6.60;90.80
8882;DHT22;4477;48.736;9.176;2024-03-08T10:48:58;6.70;90.10
8882;DHT22;4477;48.736;9.176;2024-03-08T10:51:29;6.80;88.80
8882;DHT22;4477;48.736;9.176;2024-03-08T10:53:57;7.00;89.00
8882;DHT22;4477;48.736;9.176;2024-03-08T10:56:26;7.30;86.30
8882;DHT22;4477;48.736;9.176;2024-03-08T10:58:54;7.50;85.70
8882;DHT22;4477;48.736;9.176;2024-03-08T11:01:21;7.50;84.90
8882;DHT22;4477;48.736;9.176;2024-03-08T11:03:49;7.60;84.50
8882;DHT22;4477;48.736;9.176;2024-03-08T11:06:22;7.50;85.20
8882;DHT22;4477;48.736;9.176;2024-03-08T11:08:50;7.90;83.00
8882;DHT22;4477;48.736;9.176;2024-03-08T11:11:26;7.70;82.80
8882;DHT22;4477;48.736;9.176;2024-03-08T11:13:56;7.80;83.40
8882;DHT22;4477;48.736;9.176;2024-03-08T11:16:39;8.00;82.40
8882;DHT22;4477;48.736;9.176;2024-03-08T11:19:27;8.50;80.40
8882;DHT22;4477;48.736;9.176;2024-03-08T11:22:00;8.70;80.80
8882;DHT22;4477;48.736;9.176;2024-03-08T11:24:28;8.50;79.40
8882;DHT22;4477;48.736;9.176;2024-03-08T11:27:05;8.60;81.10
8882;DHT22;4477;48.736;9.176;2024-03-08T11:29:36;8.90;79.80
8882;DHT22;4477;48.736;9.176;2024-03-08T11:32:09;10.00;77.50
8882;DHT22;4477;48.736;9.176;2024-03-08T11:34:37;12.40;70.10
8882;DHT22;4477;48.736;9.176;2024-03-08T11:37:05;12.90;63.00
8882;DHT22;4477;48.736;9.176;2024-03-08T11:39:35;12.30;63.30
8882;DHT22;4477;48.736;9.176;2024-03-08T11:42:05;11.40;64.90
8882;DHT22;4477;48.736;9.176;2024-03-08T11:44:32;11.00;65.90
8882;DHT22;4477;48.736;9.176;2024-03-08T11:46:59;11.70;66.70
8882;DHT22;4477;48.736;9.176;2024-03-08T11:49:26;12.00;65.20
8882;DHT22;4477;48.736;9.176;2024-03-08T11:51:53;11.60;64.60
8882;DHT22;4477;48.736;9.176;2024-03-08T11:54:21;11.80;63.10
8882;DHT22;4477;48.736;9.176;2024-03-08T11:56:51;12.50;61.90
8882;DHT22;4477;48.736;9.176;2024-03-08T11:59:22;13.70;60.40
8882;DHT22;4477;48.736;9.176;2024-03-08T12:02:03;13.90;59.20
8882;DHT22;4477;48.736;9.176;2024-03-08T12:04:30;13.20;61.50
8882;DHT22;4477;48.736;9.176;2024-03-08T12:06:59;13.70;60.50
8882;DHT22;4477;48.736;9.176;2024-03-08T12:09:28;14.90;57.50
8882;DHT22;4477;48.736;9.176;2024-03-08T12:11:55;15.50;56.40
8882;DHT22;4477;48.736;9.176;2024-03-08T12:14:23;16.30;54.40
8882;DHT22;4477;48.736;9.176;2024-03-08T12:16:51;17.10;52.30
8882;DHT22;4477;48.736;9.176;2024-03-08T12:19:18;17.70;49.60
8882;DHT22;4477;48.736;9.176;2024-03-08T12:21:46;17.50;49.90
8882;DHT22;4477;48.736;9.176;2024-03-08T12:24:16;16.70;50.70
8882;DHT22;4477;48.736;9.176;2024-03-08T12:26:45;15.50;51.40
8882;DHT22;4477;48.736;9.176;2024-03-08T12:29:24;15.90;52.90
8882;DHT22;4477;48.736;9.176;2024-03-08T12:31:53;15.40;54.50
8882;DHT22;4477;48.736;9.176;2024-03-08T12:34:21;15.60;52.10
8882;DHT22;4477;48.736;9.176;2024-03-08T12:36:50;14.80;52.30
8882;DHT22;4477;48.736;9.176;2024-03-08T12:39:20;15.60;53.70
8882;DHT22;4477;48.736;9.176;2024-03-08T12:41:52;16.80;51.80
8882;DHT22;4477;48.736;9.176;2024-03-08T12:44:20;17.00;49.00
8882;DHT22;4477;48.736;9.176;2024-03-08T12:46:49;17.80;48.90
8882;DHT22;4477;48.736;9.176;2024-03-08T12:49:17;18.00;48.10
8882;DHT22;4477;48.736;9.176;2024-03-08T12:51:44;17.60;47.60
8882;DHT22;4477;48.736;9.176;2024-03-08T12:54:12;17.20;49.40
8882;DHT22;4477;48.736;9.176;2024-03-08T12:56:39;17.30;49.90
8882;DHT22;4477;48.736;9.176;2024-03-08T12:59:08;17.60;48.10
8882;DHT22;4477;48.736;9.176;2024-03-08T13:01:35;18.30;48.10
8882;DHT22;4477;48.736;9.176;2024-03-08T13:04:05;18.30;46.10
8882;DHT22;4477;48.736;9.176;2024-03-08T13:06:34;17.80;47.80
8882;DHT22;4477;48.736;9.176;2024-03-08T13:09:01;16.50;48.80
8882;DHT22;4477;48.736;9.176;2024-03-08T13:11:31;16.60;49.90
8882;DHT22;4477;48.736;9.176;2024-03-08T13:14:02;15.80;49.30
8882;DHT22;4477;48.736;9.176;2024-03-08T13:16:32;14.90;52.60
8882;DHT22;4477;48.736;9.176;2024-03-08T13:19:00;15.80;51.70
8882;DHT22;4477;48.736;9.176;2024-03-08T13:21:28;15.80;50.50
8882;DHT22;4477;48.736;9.176;2024-03-08T13:23:56;15.60;51.10
8882;DHT22;4477;48.736;9.176;2024-03-08T13:26:24;16.40;49.60
8882;DHT22;4477;48.736;9.176;2024-03-08T13:28:58;17.00;48.80
8882;DHT22;4477;48.736;9.176;2024-03-08T13:31:26;17.10;47.30
8882;DHT22;4477;48.736;9.176;2024-03-08T13:33:54;17.00;48.00
8882;DHT22;4477;48.736;9.176;2024-03-08T13:36:24;16.90;48.20
8882;DHT22;4477;48.736;9.176;2024-03-08T13:38:56;16.90;48.40
8882;DHT22;4477;48.736;9.176;2024-03-08T13:41:24;17.20;47.40
8882;DHT22;4477;48.736;9.176;2024-03-08T13:43:51;17.40;48.30
8882;DHT22;4477;48.736;9.176;2024-03-08T13:46:22;17.50;47.30
8882;DHT22;4477;48.736;9.176;2024-03-08T13:48:54;17.80;46.80
8882;DHT22;4477;48.736;9.176;2024-03-08T13:51:21;16.70;47.00
8882;DHT22;4477;48.736;9.176;2024-03-08T13:53:51;16.30;48.00
8882;DHT22;4477;48.736;9.176;2024-03-08T13:56:19;16.20;49.80
8882;DHT22;4477;48.736;9.176;2024-03-08T13:58:47;17.10;48.10
8882;DHT22;4477;48.736;9.176;2024-03-08T14:01:14;17.30;48.30
8882;DHT22;4477;48.736;9.176;2024-03-08T14:03:42;17.30;47.20
8882;DHT22;4477;48.736;9.176;2024-03-08T14:06:09;16.40;49.60
8882;DHT22;4477;48.736;9.176;2024-03-08T14:08:37;16.80;48.60
8882;DHT22;4477;48.736;9.176;2024-03-08T14:11:04;16.40;48.30
8882;DHT22;4477;48.736;9.176;2024-03-08T14:13:40;16.70;47.70
8882;DHT22;4477;48.736;9.176;2024-03-08T14:16:08;16.70;47.50
8882;DHT22;4477;48.736;9.176;2024-03-08T14:18:36;16.50;49.00
8882;DHT22;4477;48.736;9.176;2024-03-08T14:21:03;17.10;47.70
8882;DHT22;4477;48.736;9.176;2024-03-08T14:23:31;17.50;46.30
8882;DHT22;4477;48.736;9.176;2024-03-08T14:25:59;16.80;47.50
8882;DHT22;4477;48.736;9.176;2024-03-08T14:28:26;16.70;48.30
8882;DHT22;4477;48.736;9.176;2024-03-08T14:30:55;16.80;48.00
8882;DHT22;4477;48.736;9.176;2024-03-08T14:33:23;16.40;48.60
8882;DHT22;4477;48.736;9.176;2024-03-08T14:35:51;16.70;48.20
8882;DHT22;4477;48.736;9.176;2024-03-08T14:38:18;17.10;48.30
8882;DHT22;4477;48.736;9.176;2024-03-08T14:40:46;17.40;46.10
8882;DHT22;4477;48.736;9.176;2024-03-08T14:43:13;17.60;45.90
8882;DHT22;4477;48.736;9.176;2024-03-08T14:45:42;17.10;46.50
8882;DHT22;4477;48.736;9.176;2024-03-08T14:48:14;17.10;46.90
8882;DHT22;4477;48.736;9.176;2024-03-08T14:50:42;16.90;47.40
8882;DHT22;4477;48.736;9.176;2024-03-08T14:53:09;16.80;47.00
8882;DHT22;4477;48.736;9.176;2024-03-08T14:55:42;16.60;47.80
8882;DHT22;4477;48.736;9.176;2024-03-08T14:58:13;16.50;48.60
8882;DHT22;4477;48.736;9.176;2024-03-08T15:00:40;15.90;48.60
8882;DHT22;4477;48.736;9.176;2024-03-08T15:03:07;15.90;48.70
8882;DHT22;4477;48.736;9.176;2024-03-08T15:05:39;16.20;48.80
8882;DHT22;4477;48.736;9.176;2024-03-08T15:08:12;15.40;49.50
8882;DHT22;4477;48.736;9.176;2024-03-08T15:10:45;15.60;50.40
8882;DHT22;4477;48.736;9.176;2024-03-08T15:13:13;16.20;48.20
8882;DHT22;4477;48.736;9.176;2024-03-08T15:15:48;15.90;48.80
8882;DHT22;4477;48.736;9.176;2024-03-08T15:18:22;15.40;49.80
8882;DHT22;4477;48.736;9.176;2024-03-08T15:20:52;15.20;50.20
8882;DHT22;4477;48.736;9.176;2024-03-08T15:23:20;14.80;51.10
8882;DHT22;4477;48.736;9.176;2024-03-08T15:25:47;14.70;51.70
8882;DHT22;4477;48.736;9.176;2024-03-08T15:28:15;13.90;51.80
8882;DHT22;4477;48.736;9.176;2024-03-08T15:30:47;13.70;53.70
8882;DHT22;4477;48.736;9.176;2024-03-08T15:33:20;13.50;54.00
8882;DHT22;4477;48.736;9.176;2024-03-08T15:35:50;13.10;55.00
8882;DHT22;4477;48.736;9.176;2024-03-08T15:38:24;12.80;55.20
8882;DHT22;4477;48.736;9.176;2024-03-08T15:40:53;12.30;55.70
8882;DHT22;4477;48.736;9.176;2024-03-08T15:43:20;11.80;57.30
8882;DHT22;4477;48.736;9.176;2024-03-08T15:45:47;11.90;57.50
8882;DHT22;4477;48.736;9.176;2024-03-08T15:48:14;11.60;58.20
8882;DHT22;4477;48.736;9.176;2024-03-08T15:50:41;11.40;58.50
8882;DHT22;4477;48.736;9.176;2024-03-08T15:53:08;11.00;59.30
8882;DHT22;4477;48.736;9.176;2024-03-08T15:55:38;10.70;60.00
8882;DHT22;4477;48.736;9.176;2024-03-08T15:58:06;10.40;60.90
8882;DHT22;4477;48.736;9.176;2024-03-08T16:00:33;10.30;62.00
8882;DHT22;4477;48.736;9.176;2024-03-08T16:03:02;10.40;61.80
8882;DHT22;4477;48.736;9.176;2024-03-08T16:05:32;10.70;61.50
8882;DHT22;4477;48.736;9.176;2024-03-08T16:07:59;10.70;61.20
8882;DHT22;4477;48.736;9.176;2024-03-08T16:10:26;10.90;61.40
8882;DHT22;4477;48.736;9.176;2024-03-08T16:12:56;10.80;60.60
8882;DHT22;4477;48.736;9.176;2024-03-08T16:15:23;10.40;61.90
8882;DHT22;4477;48.736;9.176;2024-03-08T16:17:51;10.30;63.50